Discovery — WDI4277 — position and weather

sailwx.info

Track history (hours):
 
Tides and Currents Weather Stations Pressure Air Temp Water Temp Dewpoint Dewpoint Depression Visibility Wind Speed Wind Dir Waves Ship Positions

Discovery

Owner: Central Boat Rentals, Inc, Morgan City, LA. More information available from US FCC via Universal Licensing System and Coast Guard Vessel Documentation Center.

Last reported at 2018-Feb-19 07:32 UTC. Time now 2018-Feb-21 09:46 UTC.
Position N 29°36' W 090°58'.

Length 17 m; draft 2 m.

Type: Tug. MMSI: 367697020.

Date/timePositionNaut miles runAvg speedWind from/ knotsBaromVisibWave heightAir tempDewpointWater temp
2018-Feb-19 07:32N 29°36' W 090°58'2 5.8
2018-Feb-19 07:08N 29°34' W 090°56'1 6.5
2018-Feb-19 06:59N 29°34' W 090°55'4 6.2
2018-Feb-19 06:19N 29°32' W 090°51'2 6.5
2018-Feb-19 06:00N 29°32' W 090°48'3 5.7
2018-Feb-19 05:30N 29°33' W 090°45'2 4.6
2018-Feb-19 05:00N 29°34' W 090°43'3 6.5
2018-Feb-19 04:30N 29°31' W 090°43'3 6.8
2018-Feb-19 04:00N 29°27' W 090°43'  
2018-Feb-16 03:29N 29°26' W 090°43'3 6.8
2018-Feb-16 03:00N 29°29' W 090°43'3 6.9
2018-Feb-16 02:30N 29°33' W 090°42'2 4.0
2018-Feb-16 02:00N 29°34' W 090°44'3 6.3
2018-Feb-16 01:30N 29°32' W 090°47'  
Track history (hours):
 
Tides and Currents Weather Stations Pressure Air Temp Water Temp Dewpoint Dewpoint Depression Visibility Wind Speed Wind Dir Waves Ship Positions

Discovery

Owner: Central Boat Rentals, Inc, Morgan City, LA. More information available from US FCC via Universal Licensing System and Coast Guard Vessel Documentation Center.

Last reported at 2018-Feb-19 07:32 UTC. Time now 2018-Feb-21 09:46 UTC.
Position N 29°36' W 090°58'.

Length 17 m; draft 2 m.

Type: Tug. MMSI: 367697020.

Date/timePositionNaut miles runAvg speedWind from/ knotsBaromVisibWave heightAir tempDewpointWater temp
2018-Feb-19 07:32N 29°36' W 090°58'2 5.8
2018-Feb-19 07:08N 29°34' W 090°56'1 6.5
2018-Feb-19 06:59N 29°34' W 090°55'4 6.2
2018-Feb-19 06:19N 29°32' W 090°51'2 6.5
2018-Feb-19 06:00N 29°32' W 090°48'3 5.7
2018-Feb-19 05:30N 29°33' W 090°45'2 4.6
2018-Feb-19 05:00N 29°34' W 090°43'3 6.5
2018-Feb-19 04:30N 29°31' W 090°43'3 6.8
2018-Feb-19 04:00N 29°27' W 090°43'  
2018-Feb-16 03:29N 29°26' W 090°43'3 6.8
2018-Feb-16 03:00N 29°29' W 090°43'3 6.9
2018-Feb-16 02:30N 29°33' W 090°42'2 4.0
2018-Feb-16 02:00N 29°34' W 090°44'3 6.3
2018-Feb-16 01:30N 29°32' W 090°47'  

Dump ship's entire track history